Impacts METAR Board
IDs:

KLAX - Los Angeles Intl, CA, US

Updated at: 0300 UTC 22 Jun 2018
Potential Impact None Slight Moderate High
Time 21/15Z 21/16Z 21/17Z 21/18Z 21/19Z 21/20Z 21/21Z 21/22Z 21/23Z 22/00Z 22/01Z 22/02Z 22/03Z
Temp65 66 68 68 70 71 72 74 71 69 67 66 65
Dewpt59 59 60 60 61 61 61 60 60 60 61 60 61
Altim29.95 29.96 29.96 29.96 29.96 29.95 29.94 29.93 29.91 29.90 29.90 29.90 29.91
VIS5 6 5 6 7 7 10 7 7 9 10 10 10
CIG12 13 16 16 17 -- -- -- -- 13 7 8 7
CoverOVCOVCOVCOVCBKNSCTFEWFEWFEWOVCOVCOVCOVC
FltCatMVFRMVFRMVFRMVFRMVFRVFRVFRVFRVFRMVFRIFRIFRIFR
WXBRHZHZHZ------------------
WDir260700240220240270260250240250260230
WSpd3 3 4 8 8 7 10 10 11 10 10 9 8
WGst-- -- -- -- -- -- -- -- -- -- -- -- --
Raw hourly METARs
KLAX 211453Z 26003KT 5SM BR OVC012 18/15 A2995 RMK AO2 SLP141 T01830150 53010
KLAX 211553Z 07003KT 6SM HZ OVC013 19/15 A2996 RMK AO2 SLP142 T01890150
KLAX 211653Z VRB04KT 5SM HZ OVC016 20/16 A2996 RMK AO2 SLP143 T02000156
KLAX 211753Z 24008KT 6SM HZ OVC016 20/16 A2996 RMK AO2 SLP144 T02000156 10206 20178 53004
KLAX 211853Z 22008KT 7SM SCT010 BKN017 21/16 A2996 RMK AO2 SLP145 T02110161
KLAX 212000Z 24007KT 7SM SCT014 SCT021 22/16 A2995 RMK AO2 T02170161
KLAX 212053Z 27010KT 10SM FEW014 22/16 A2994 RMK AO2 SLP137 T02220161 58006
KLAX 212153Z 26010KT 7SM FEW014 23/16 A2993 RMK AO2 SLP132 T02330156
KLAX 212253Z 25011KT 7SM FEW014 22/16 A2991 RMK AO2 SLP128 T02170156
KLAX 212353Z 24010KT 9SM OVC013 21/16 A2990 RMK AO2 SLP125 T02060156 10233 20200 56013
KLAX 220053Z 25010KT 10SM OVC007 19/16 A2990 RMK AO2 SLP123 T01940161
KLAX 220153Z 26009KT 10SM OVC008 19/16 A2990 RMK AO2 SLP124 T01890156
KLAX 220253Z 23008KT 10SM OVC007 18/16 A2991 RMK AO2 SLP126 T01830161 53002



Page loaded:  03:16 UTC  |   08:16 PM Pacific  |   09:16 PM Mountain  |   10:16 PM Central  |   11:16 PM Eastern

 

ADVISORIES

FORECASTS

FORECASTS

OBSERVATIONS

USER TOOLS

ABOUT US